createdAt,value
2022-11-24T00:01:32.072Z,12.10
2022-11-24T00:04:05.570Z,12.00
2022-11-24T00:06:36.201Z,11.50
2022-11-24T00:09:05.635Z,13.20
2022-11-24T00:11:36.849Z,13.30
2022-11-24T00:14:06.458Z,13.00
2022-11-24T00:16:37.238Z,13.80
2022-11-24T00:19:11.429Z,13.20
2022-11-24T00:21:41.933Z,13.70
2022-11-24T00:24:10.517Z,13.20
2022-11-24T00:26:39.001Z,12.50
2022-11-24T00:29:08.099Z,13.40
2022-11-24T00:31:41.692Z,13.60
2022-11-24T00:34:14.784Z,12.90
2022-11-24T00:36:43.832Z,13.40
2022-11-24T00:39:14.409Z,13.20
2022-11-24T00:41:43.305Z,12.30
2022-11-24T00:44:11.680Z,13.80
2022-11-24T00:46:40.392Z,12.70
2022-11-24T00:49:09.455Z,12.70
2022-11-24T00:51:37.730Z,13.10
2022-11-24T00:54:07.032Z,14.10
2022-11-24T00:56:35.306Z,14.50
2022-11-24T00:59:04.441Z,13.50
2022-11-24T01:01:32.666Z,13.40
2022-11-24T01:04:02.083Z,12.80
2022-11-24T01:06:31.596Z,12.10
2022-11-24T01:09:00.170Z,12.00
2022-11-24T01:11:54.454Z,12.60
2022-11-24T01:14:25.290Z,14.40
2022-11-24T01:16:54.605Z,12.90
2022-11-24T01:19:23.488Z,13.60
2022-11-24T01:21:51.758Z,14.60
2022-11-24T01:24:20.134Z,13.30
2022-11-24T01:26:48.410Z,13.70
2022-11-24T01:29:16.686Z,13.60
2022-11-24T01:31:44.965Z,12.50
2022-11-24T01:34:13.855Z,15.00
2022-11-24T01:36:42.130Z,14.60
2022-11-24T01:39:10.721Z,13.90
2022-11-24T01:41:38.987Z,13.90
2022-11-24T01:44:28.360Z,14.50
2022-11-24T01:47:08.718Z,13.10
2022-11-24T01:49:45.186Z,13.40
2022-11-24T01:52:22.064Z,12.70
2022-11-24T01:54:56.279Z,13.20
2022-11-24T01:57:39.094Z,12.80
2022-11-24T02:00:10.849Z,13.30
2022-11-24T02:02:45.049Z,13.50
2022-11-24T02:05:22.151Z,13.00
2022-11-24T02:07:53.151Z,13.20
2022-11-24T02:10:22.285Z,13.00
2022-11-24T02:12:55.168Z,12.20
2022-11-24T02:15:23.769Z,13.00
2022-11-24T02:17:52.131Z,13.60
2022-11-24T02:20:20.509Z,12.70
2022-11-24T02:23:03.632Z,12.20
2022-11-24T02:25:47.678Z,12.10
2022-11-24T02:28:19.744Z,13.10
2022-11-24T02:30:49.417Z,12.80
2022-11-24T02:33:18.754Z,11.30
2022-11-24T02:35:47.034Z,12.20
2022-11-24T02:38:15.407Z,12.60
2022-11-24T02:40:47.472Z,11.60
2022-11-24T02:43:23.841Z,12.50
2022-11-24T02:45:52.170Z,13.00
2022-11-24T02:48:20.528Z,12.50
2022-11-24T02:50:48.769Z,11.50
2022-11-24T02:53:17.148Z,11.70
2022-11-24T02:55:45.527Z,11.80
2022-11-24T02:58:15.337Z,11.70
2022-11-24T03:00:43.715Z,12.40
2022-11-24T03:03:12.281Z,12.20
2022-11-24T03:05:41.088Z,11.40
2022-11-24T03:08:09.364Z,11.90
2022-11-24T03:10:37.638Z,11.60
2022-11-24T03:13:06.268Z,11.20
2022-11-24T03:15:35.044Z,11.20
2022-11-24T03:18:03.593Z,11.50
2022-11-24T03:20:31.869Z,10.90
2022-11-24T03:23:00.143Z,11.30
2022-11-24T03:25:28.420Z,11.20
2022-11-24T03:27:58.521Z,11.10
2022-11-24T03:30:26.814Z,12.20
2022-11-24T03:32:55.091Z,11.60
2022-11-24T03:35:24.085Z,11.50
2022-11-24T03:37:52.361Z,11.30
2022-11-24T03:40:20.641Z,10.50
2022-11-24T03:42:49.019Z,10.70
2022-11-24T03:45:44.194Z,11.50
2022-11-24T03:48:06.711Z,11.10
2022-11-24T03:50:34.946Z,12.00
2022-11-24T03:53:03.216Z,10.80
2022-11-24T03:55:31.489Z,11.40
2022-11-24T03:57:59.970Z,10.90
2022-11-24T04:00:28.593Z,11.70
2022-11-24T04:02:56.846Z,12.50
2022-11-24T04:05:25.721Z,11.80
2022-11-24T04:07:57.893Z,12.60
2022-11-24T04:10:26.163Z,10.70
2022-11-24T04:12:54.747Z,11.60
2022-11-24T04:15:23.022Z,10.50
2022-11-24T04:17:51.503Z,10.20
2022-11-24T04:20:20.393Z,10.80
2022-11-24T04:22:50.932Z,10.50
2022-11-24T04:25:19.300Z,10.10
2022-11-24T04:27:52.272Z,10.20
2022-11-24T04:30:21.528Z,8.60
2022-11-24T04:32:50.067Z,9.70
2022-11-24T04:35:19.060Z,9.80
2022-11-24T04:37:47.950Z,9.70
2022-11-24T04:40:17.028Z,9.70
2022-11-24T04:42:53.818Z,10.20
2022-11-24T04:45:23.634Z,10.00
2022-11-24T04:47:52.118Z,9.00
2022-11-24T04:50:21.105Z,9.10
2022-11-24T04:52:49.391Z,9.30
2022-11-24T04:55:17.766Z,8.00
2022-11-24T04:57:46.038Z,7.40
2022-11-24T05:00:15.037Z,7.50
2022-11-24T05:02:43.407Z,7.80
2022-11-24T05:05:11.890Z,7.50
2022-11-24T05:07:40.250Z,7.90
2022-11-24T05:10:28.095Z,8.40
2022-11-24T05:12:59.620Z,7.20
2022-11-24T05:15:28.335Z,6.70
2022-11-24T05:17:57.349Z,7.40
2022-11-24T05:20:25.607Z,7.30
2022-11-24T05:22:53.775Z,8.20
2022-11-24T05:25:21.950Z,8.10
2022-11-24T05:27:50.328Z,7.40
2022-11-24T05:30:18.602Z,8.10
2022-11-24T05:32:46.776Z,8.10
2022-11-24T05:35:15.361Z,7.80
2022-11-24T05:37:43.534Z,7.40
2022-11-24T05:40:11.707Z,8.60
2022-11-24T05:42:47.057Z,7.90
2022-11-24T05:45:19.626Z,7.50
2022-11-24T05:47:50.055Z,7.80
2022-11-24T05:50:20.580Z,8.30
2022-11-24T05:52:49.615Z,8.30
2022-11-24T05:55:19.793Z,9.80
2022-11-24T05:57:48.062Z,10.00
2022-11-24T06:00:18.303Z,9.40
2022-11-24T06:02:46.535Z,9.30
2022-11-24T06:05:15.041Z,8.40
2022-11-24T06:07:43.407Z,8.40
2022-11-24T06:10:11.900Z,8.40
2022-11-24T06:12:39.970Z,8.80
2022-11-24T06:15:09.397Z,8.00
2022-11-24T06:17:38.879Z,8.60
2022-11-24T06:20:08.587Z,8.40
2022-11-24T06:22:37.786Z,7.50
2022-11-24T06:25:06.771Z,8.50
2022-11-24T06:27:34.848Z,8.20
2022-11-24T06:30:04.148Z,9.90
2022-11-24T06:32:32.426Z,10.00
2022-11-24T06:35:00.600Z,10.60
2022-11-24T06:37:28.982Z,11.20
2022-11-24T06:39:57.356Z,10.90
2022-11-24T06:42:25.529Z,9.50
2022-11-24T06:44:53.908Z,8.50
2022-11-24T06:47:22.284Z,8.60
2022-11-24T06:49:50.563Z,8.50
2022-11-24T06:52:18.735Z,7.90
2022-11-24T06:54:46.911Z,8.50
2022-11-24T06:57:14.981Z,8.40
2022-11-24T06:59:43.359Z,9.00
2022-11-24T07:02:11.538Z,8.30
2022-11-24T07:04:39.705Z,9.20
2022-11-24T07:07:07.973Z,9.60
2022-11-24T07:09:36.359Z,21.90
2022-11-24T07:12:06.078Z,14.10
2022-11-24T07:14:34.368Z,45.60
2022-11-24T07:17:04.874Z,16.20
2022-11-24T07:19:33.258Z,12.40
2022-11-24T07:22:01.429Z,11.50
2022-11-24T07:24:29.600Z,10.80
2022-11-24T07:26:57.671Z,10.80
2022-11-24T07:29:25.843Z,13.50
2022-11-24T07:31:54.151Z,10.90
2022-11-24T07:34:22.399Z,10.50
2022-11-24T07:36:50.569Z,10.90
2022-11-24T07:39:18.681Z,11.00
2022-11-24T07:41:46.815Z,13.40
2022-11-24T07:44:14.887Z,14.60
2022-11-24T07:46:43.059Z,12.90
2022-11-24T07:49:11.243Z,19.20
2022-11-24T07:51:39.307Z,13.90
2022-11-24T07:54:07.477Z,9.10
2022-11-24T07:56:35.752Z,13.70
2022-11-24T07:59:04.313Z,14.50
2022-11-24T08:01:32.643Z,10.60
2022-11-24T08:04:02.277Z,10.00
2022-11-24T08:06:39.394Z,10.60
2022-11-24T08:09:09.011Z,8.90
2022-11-24T08:11:37.082Z,9.30
2022-11-24T08:14:05.460Z,10.10
2022-11-24T08:16:33.949Z,29.60
2022-11-24T08:19:02.114Z,12.30
2022-11-24T08:21:30.289Z,11.30
2022-11-24T08:23:58.786Z,17.10
2022-11-24T08:26:27.265Z,14.90
2022-11-24T08:28:59.831Z,14.30
2022-11-24T08:31:34.027Z,13.90
2022-11-24T08:34:04.162Z,22.70
2022-11-24T08:36:33.563Z,13.40
2022-11-24T08:39:02.589Z,12.10
2022-11-24T08:41:31.762Z,18.30
2022-11-24T08:43:59.928Z,12.40
2022-11-24T08:46:28.371Z,14.00
2022-11-24T08:48:56.992Z,10.50
2022-11-24T08:51:27.030Z,11.60
2022-11-24T08:54:00.198Z,10.30
2022-11-24T08:56:30.830Z,12.90
2022-11-24T08:58:59.757Z,14.10
2022-11-24T09:01:29.338Z,13.00
2022-11-24T09:03:58.135Z,16.20
2022-11-24T09:06:31.066Z,19.90
2022-11-24T09:09:00.171Z,14.20
2022-11-24T09:11:28.882Z,17.00
2022-11-24T09:13:56.954Z,15.70
2022-11-24T09:16:28.082Z,15.70
2022-11-24T09:19:05.075Z,18.60
2022-11-24T09:21:37.864Z,16.60
2022-11-24T09:24:07.538Z,18.20
2022-11-24T09:26:40.621Z,16.20
2022-11-24T09:29:12.818Z,16.00
2022-11-24T09:31:41.204Z,11.10
2022-11-24T09:34:13.676Z,15.70
2022-11-24T09:36:42.525Z,18.30
2022-11-24T09:39:11.542Z,20.50
2022-11-24T09:41:44.446Z,17.40
2022-11-24T09:44:33.814Z,13.80
2022-11-24T09:47:20.729Z,14.60
2022-11-24T09:50:05.387Z,13.60
2022-11-24T09:52:41.959Z,16.10
2022-11-24T09:55:37.062Z,15.90
2022-11-24T09:58:45.478Z,15.40
2022-11-24T10:01:20.050Z,16.20
2022-11-24T10:03:51.149Z,16.00
2022-11-24T10:06:34.799Z,15.30
2022-11-24T10:09:30.705Z,15.40
2022-11-24T10:12:36.850Z,19.50
2022-11-24T10:15:21.836Z,16.70
2022-11-24T10:18:13.273Z,17.30
2022-11-24T10:21:18.192Z,17.60
2022-11-24T10:23:58.551Z,17.40
2022-11-24T10:26:36.553Z,17.50
2022-11-24T10:29:38.010Z,17.60
2022-11-24T10:32:16.313Z,18.00
2022-11-24T10:34:52.173Z,13.30
2022-11-24T10:37:26.694Z,16.80
2022-11-24T10:40:00.385Z,30.30
2022-11-24T10:42:32.154Z,18.80
2022-11-24T10:45:22.651Z,17.50
2022-11-24T10:47:51.030Z,18.80
2022-11-24T10:50:28.112Z,17.10
2022-11-24T10:53:05.707Z,17.20
2022-11-24T10:55:58.566Z,23.10
2022-11-24T10:58:28.075Z,26.30
2022-11-24T11:01:01.070Z,19.90
2022-11-24T11:03:33.360Z,18.80
2022-11-24T11:06:25.863Z,24.50
2022-11-24T11:09:09.400Z,26.40
2022-11-24T11:11:39.518Z,28.70
2022-11-24T11:14:11.126Z,24.10
2022-11-24T11:16:53.275Z,18.80
2022-11-24T11:19:54.376Z,17.50
2022-11-24T11:22:28.842Z,15.80
2022-11-24T11:25:14.829Z,44.10
2022-11-24T11:27:43.313Z,32.90
2022-11-24T11:36:12.010Z,16.50
2022-11-24T11:38:41.848Z,20.40
2022-11-24T11:41:22.208Z,19.30
2022-11-24T11:43:59.085Z,12.90
2022-11-24T11:46:31.534Z,18.60
2022-11-24T11:49:00.450Z,19.20
2022-11-24T11:55:05.716Z,20.80
2022-11-24T11:57:47.095Z,20.30
2022-11-24T12:00:22.102Z,18.60
2022-11-24T12:02:56.484Z,15.30
2022-11-24T12:05:43.772Z,19.60
2022-11-24T12:09:18.795Z,16.20
2022-11-24T12:12:11.356Z,16.00
2022-11-24T12:15:05.949Z,15.80
2022-11-24T12:18:21.643Z,19.30
2022-11-24T12:21:06.809Z,16.60
2022-11-24T12:23:59.352Z,18.80
2022-11-24T12:26:49.339Z,16.30
2022-11-24T12:29:39.424Z,17.10
2022-11-24T12:32:33.406Z,18.10
2022-11-24T12:35:19.599Z,17.20
2022-11-24T12:38:12.043Z,17.10
2022-11-24T12:41:18.357Z,16.40
2022-11-24T12:43:56.617Z,15.20
2022-11-24T12:47:03.014Z,15.00
2022-11-24T12:49:40.102Z,13.80
2022-11-24T12:52:31.897Z,15.40
2022-11-24T12:55:01.814Z,15.90
2022-11-24T12:58:10.795Z,14.40
2022-11-24T13:01:16.224Z,10.90
2022-11-24T13:04:04.228Z,11.90
2022-11-24T13:06:49.023Z,12.10
2022-11-24T13:09:17.983Z,11.60
2022-11-24T13:12:14.047Z,12.00
2022-11-24T13:14:44.947Z,11.90
2022-11-24T13:17:42.044Z,12.40
2022-11-24T13:20:19.508Z,11.80
2022-11-24T13:22:57.190Z,11.40
2022-11-24T13:25:29.018Z,10.70
2022-11-24T13:28:00.396Z,11.80
2022-11-24T13:30:34.815Z,11.90
2022-11-24T13:33:16.400Z,12.00
2022-11-24T13:36:11.917Z,12.60
2022-11-24T13:38:45.834Z,12.50
2022-11-24T13:41:32.404Z,14.40
2022-11-24T13:44:16.348Z,13.30
2022-11-24T13:47:32.574Z,13.80
2022-11-24T13:50:02.796Z,12.80
2022-11-24T13:52:42.130Z,13.00
2022-11-24T13:55:13.181Z,13.20
2022-11-24T13:57:48.102Z,14.40
2022-11-24T14:00:35.632Z,13.10
2022-11-24T14:03:26.795Z,15.50
2022-11-24T14:05:54.981Z,13.10
2022-11-24T14:08:28.927Z,12.30
2022-11-24T14:10:59.040Z,12.50
2022-11-24T14:13:28.140Z,11.90
2022-11-24T14:16:06.392Z,12.10
2022-11-24T14:18:36.366Z,11.40
2022-11-24T14:21:42.735Z,13.40
2022-11-24T14:24:42.789Z,12.20
2022-11-24T14:27:17.587Z,11.90
2022-11-24T14:29:54.667Z,42.10
2022-11-24T14:32:23.455Z,31.40
2022-11-24T14:34:52.336Z,35.70
2022-11-24T14:37:20.938Z,28.30
2022-11-24T14:39:49.311Z,14.80
2022-11-24T14:42:25.473Z,13.50
2022-11-24T14:45:00.198Z,17.70
2022-11-24T14:47:37.379Z,15.30
2022-11-24T14:50:23.203Z,16.60
2022-11-24T14:52:59.225Z,14.80
2022-11-24T14:55:32.628Z,15.60
2022-11-24T14:58:00.896Z,18.10
2022-11-24T15:00:31.803Z,19.20
2022-11-24T15:03:06.048Z,19.40
2022-11-24T15:06:03.817Z,16.80
2022-11-24T15:08:43.049Z,20.20
2022-11-24T15:11:11.325Z,72.30
2022-11-24T15:13:39.908Z,30.80
2022-11-24T15:16:16.141Z,24.60
2022-11-24T15:18:47.417Z,18.80
2022-11-24T15:21:19.466Z,18.10
2022-11-24T15:24:16.292Z,17.30
2022-11-24T15:26:45.428Z,17.40
2022-11-24T15:29:13.699Z,15.20
2022-11-24T15:31:47.741Z,14.40
2022-11-24T15:34:19.161Z,13.40
2022-11-24T15:36:47.229Z,32.10
2022-11-24T15:39:15.304Z,17.90
2022-11-24T15:41:43.478Z,16.10
2022-11-24T15:44:11.648Z,31.30
2022-11-24T15:46:40.292Z,21.20
2022-11-24T15:49:08.609Z,22.10
2022-11-24T15:51:42.722Z,18.10
2022-11-24T15:54:16.120Z,13.00
2022-11-24T15:56:44.709Z,15.00
2022-11-24T15:59:20.363Z,21.30
2022-11-24T16:01:50.924Z,18.40
2022-11-24T16:04:19.167Z,16.40
2022-11-24T16:06:48.149Z,18.50
2022-11-24T16:09:17.455Z,15.10
2022-11-24T16:11:45.624Z,23.20
2022-11-24T16:14:14.027Z,15.80
2022-11-24T16:16:42.510Z,28.20
2022-11-24T16:19:11.466Z,29.00
2022-11-24T16:21:39.545Z,26.20
2022-11-24T16:24:08.008Z,19.40
2022-11-24T16:26:36.097Z,23.80
2022-11-24T16:29:04.782Z,26.40
2022-11-24T16:31:33.127Z,29.40
2022-11-24T16:34:01.516Z,26.40
2022-11-24T16:36:29.925Z,43.20
2022-11-24T16:39:00.088Z,19.60
2022-11-24T16:41:28.315Z,40.80
2022-11-24T16:43:56.897Z,26.70
2022-11-24T16:46:25.539Z,40.10
2022-11-24T16:48:59.769Z,28.50
2022-11-24T16:51:34.212Z,31.00
2022-11-24T16:54:04.014Z,18.30
2022-11-24T16:56:32.418Z,19.60
2022-11-24T16:59:00.582Z,27.50
2022-11-24T17:01:30.253Z,26.10
2022-11-24T17:03:59.267Z,35.10
2022-11-24T17:06:28.151Z,32.90
2022-11-24T17:08:56.347Z,37.20
2022-11-24T17:11:26.568Z,27.60
2022-11-24T17:13:56.790Z,24.60
2022-11-24T17:16:26.165Z,28.70
2022-11-24T17:18:54.775Z,23.60
2022-11-24T17:21:25.100Z,20.70
2022-11-24T17:23:58.810Z,22.80
2022-11-24T17:26:27.799Z,20.20
2022-11-24T17:28:56.481Z,20.60
2022-11-24T17:31:32.300Z,20.70
2022-11-24T17:34:01.612Z,20.00
2022-11-24T17:36:32.235Z,16.40
2022-11-24T17:39:01.566Z,20.20
2022-11-24T17:41:30.252Z,18.90
2022-11-24T17:43:58.628Z,19.50
2022-11-24T17:46:28.688Z,20.80
2022-11-24T17:48:57.845Z,21.10
2022-11-24T17:51:27.145Z,21.30
2022-11-24T17:53:57.376Z,17.80
2022-11-24T17:56:27.596Z,16.10
2022-11-24T17:58:58.631Z,17.00
2022-11-24T18:01:30.223Z,16.70
2022-11-24T18:03:58.772Z,15.50
2022-11-24T18:06:28.925Z,18.00
2022-11-24T18:08:59.224Z,17.50
2022-11-24T18:11:32.314Z,15.70
2022-11-24T18:14:03.615Z,15.80
2022-11-24T18:16:34.705Z,16.30
2022-11-24T18:19:10.673Z,16.80
2022-11-24T18:21:41.473Z,15.40
2022-11-24T18:24:11.826Z,17.70
2022-11-24T18:26:41.092Z,16.10
2022-11-24T18:29:10.808Z,15.90
2022-11-24T18:31:39.579Z,16.20
2022-11-24T18:34:08.552Z,18.40
2022-11-24T18:36:37.072Z,29.10
2022-11-24T18:39:09.217Z,33.90
2022-11-24T18:41:37.313Z,24.70
2022-11-24T18:44:08.617Z,23.10
2022-11-24T18:46:38.251Z,16.60
2022-11-24T18:49:07.494Z,18.80
2022-11-24T18:51:36.057Z,21.90
2022-11-24T18:54:05.645Z,18.90
2022-11-24T18:56:34.032Z,27.60
2022-11-24T18:59:02.205Z,19.30
2022-11-24T19:01:30.945Z,19.50
2022-11-24T19:04:02.245Z,21.80
2022-11-24T19:06:32.925Z,20.30
2022-11-24T19:09:05.854Z,21.90
2022-11-24T19:11:37.286Z,21.50
2022-11-24T19:14:08.348Z,21.80
2022-11-24T19:16:37.451Z,23.50
2022-11-24T19:19:06.366Z,18.40
2022-11-24T19:21:37.359Z,19.70
2022-11-24T19:24:13.536Z,18.60
2022-11-24T19:26:42.028Z,17.20
2022-11-24T19:29:10.601Z,20.10
2022-11-24T19:31:44.260Z,16.70
2022-11-24T19:34:12.885Z,15.90
2022-11-24T19:36:43.417Z,15.20
2022-11-24T19:39:16.712Z,14.60
2022-11-24T19:41:45.186Z,14.20
2022-11-24T19:44:13.772Z,14.00
2022-11-24T19:46:41.843Z,20.30
2022-11-24T19:49:10.219Z,18.00
2022-11-24T19:51:40.043Z,17.00
2022-11-24T19:54:12.921Z,17.30
2022-11-24T19:56:42.216Z,16.10
2022-11-24T19:59:13.565Z,16.30
2022-11-24T20:01:42.791Z,17.20
2022-11-24T20:04:13.809Z,16.90
2022-11-24T20:06:44.230Z,17.50
2022-11-24T20:09:15.271Z,16.70
2022-11-24T20:11:44.144Z,20.00
2022-11-24T20:14:14.887Z,16.90
2022-11-24T20:16:45.635Z,28.10
2022-11-24T20:19:16.567Z,18.30
2022-11-24T20:21:48.195Z,19.00
2022-11-24T20:26:58.390Z,16.50
2022-11-24T20:29:28.611Z,15.00
2022-11-24T20:31:57.379Z,16.90
2022-11-24T20:34:26.598Z,15.90
2022-11-24T20:36:54.773Z,16.50
2022-11-24T20:39:26.524Z,15.10
2022-11-24T20:44:26.781Z,15.80
2022-11-24T20:46:57.024Z,14.00
2022-11-24T20:49:26.698Z,12.30
2022-11-24T20:51:57.550Z,15.90
2022-11-24T20:54:26.426Z,16.00
2022-11-24T20:56:54.905Z,17.10
2022-11-24T20:59:24.852Z,14.90
2022-11-24T21:01:55.688Z,19.70
2022-11-24T21:04:26.493Z,15.80
2022-11-24T21:06:55.381Z,17.40
2022-11-24T21:09:24.895Z,15.30
2022-11-24T21:11:55.006Z,14.60
2022-11-24T21:14:24.728Z,14.30
2022-11-24T21:16:53.237Z,15.40
2022-11-24T21:19:21.443Z,22.10
2022-11-24T21:21:53.475Z,21.90
2022-11-24T21:24:33.593Z,28.70
2022-11-24T21:27:02.948Z,18.40
2022-11-24T21:29:31.166Z,14.40
2022-11-24T21:31:59.882Z,12.70
2022-11-24T21:34:28.031Z,12.90
2022-11-24T21:36:56.197Z,12.50
2022-11-24T21:39:24.401Z,12.80
2022-11-24T21:41:53.010Z,17.10
2022-11-24T21:44:23.959Z,12.80
2022-11-24T21:46:56.322Z,15.10
2022-11-24T21:49:26.071Z,17.40
2022-11-24T21:51:57.062Z,12.70
2022-11-24T21:54:26.724Z,12.40
2022-11-24T21:56:58.789Z,19.80
2022-11-24T21:59:26.962Z,24.60
2022-11-24T22:01:55.275Z,22.70
2022-11-24T22:04:23.526Z,13.30
2022-11-24T22:06:53.634Z,17.20
2022-11-24T22:09:21.704Z,18.20
2022-11-24T22:11:49.980Z,22.80
2022-11-24T22:14:18.785Z,20.30
2022-11-24T22:16:47.041Z,13.50
2022-11-24T22:19:15.326Z,12.70
2022-11-24T22:21:43.495Z,11.30
2022-11-24T22:24:11.980Z,11.90
2022-11-24T22:26:40.149Z,12.60
2022-11-24T22:29:08.611Z,11.80
2022-11-24T22:31:36.800Z,11.20
2022-11-24T22:34:05.080Z,14.70
2022-11-24T22:36:33.460Z,12.90
2022-11-24T22:39:03.653Z,11.50
2022-11-24T22:41:34.104Z,12.60
2022-11-24T22:44:02.590Z,11.60
2022-11-24T22:46:32.085Z,12.70
2022-11-24T22:49:01.812Z,11.90
2022-11-24T22:51:33.256Z,12.10
2022-11-24T22:54:03.676Z,11.30
2022-11-24T22:56:33.493Z,12.60
2022-11-24T22:59:02.573Z,11.80
2022-11-24T23:01:33.901Z,12.00
2022-11-24T23:04:04.083Z,12.10
2022-11-24T23:06:33.662Z,13.00
2022-11-24T23:09:04.187Z,12.30
2022-11-24T23:11:38.210Z,13.00
2022-11-24T23:14:15.828Z,12.70
2022-11-24T23:16:44.382Z,12.30
2022-11-24T23:19:12.650Z,11.30
2022-11-24T23:21:40.722Z,11.90
2022-11-24T23:24:10.657Z,13.20
2022-11-24T23:26:40.861Z,12.30
2022-11-24T23:29:10.811Z,13.80
2022-11-24T23:31:42.254Z,13.80
2022-11-24T23:34:10.508Z,15.20
2022-11-24T23:36:38.977Z,15.00
2022-11-24T23:39:09.306Z,14.10
2022-11-24T23:41:37.789Z,15.20
2022-11-24T23:44:07.078Z,14.30
2022-11-24T23:46:35.671Z,14.40
2022-11-24T23:49:04.045Z,13.50
2022-11-24T23:51:33.754Z,14.90
2022-11-24T23:56:47.306Z,16.00
2022-11-24T23:59:17.528Z,15.10
